Wattsburg, Pennsylvania
Current Conditions -  °F | °C
As of 12:51 PM on Saturday 25 Oct 2014 (Local Time) from KERI Reporting Station
Overcast Overcast  
Wind Chill: 18°   Ceiling: 4800
Heat Index: 18°   Visibility: 10mi
Dew Point:   Wind: 13mph
Humidity: 56%   Direction: 230°SW
Pressure: 29.75"   Gusts: 23mph
Location:  42°N, 79.81°W
Report Text: KERI 251651Z 23011G20KT 10SM OVC048 18/09 A2975 RMK AO2 SLP074 T01780089
Loading
Personal Weather Stations






























Interactive Weather Map
Tropical Storm Tracking
New forecast layout! Learn more

10-Day Weather Forecast

Advertisements
Track Severe Weather on mobile